createdAt,value
2024-02-06T00:01:48.915Z,10.10
2024-02-06T00:05:50.806Z,14.30
2024-02-06T00:09:52.511Z,8.88
2024-02-06T00:13:54.318Z,10.80
2024-02-06T00:17:56.402Z,12.63
2024-02-06T00:21:58.325Z,12.35
2024-02-06T00:26:00.888Z,9.82
2024-02-06T00:30:02.745Z,9.32
2024-02-06T00:34:04.887Z,12.57
2024-02-06T00:38:06.764Z,8.30
2024-02-06T00:42:08.525Z,14.82
2024-02-06T00:46:10.296Z,13.10
2024-02-06T00:50:12.906Z,11.27
2024-02-06T00:54:14.791Z,16.77
2024-02-06T00:58:17.224Z,9.48
2024-02-06T01:02:19.022Z,16.10
2024-02-06T01:06:30.071Z,13.57
2024-02-06T01:10:31.884Z,11.05
2024-02-06T01:14:33.643Z,14.27
2024-02-06T01:18:35.524Z,11.07
2024-02-06T01:22:37.464Z,16.65
2024-02-06T01:26:39.277Z,10.70
2024-02-06T01:30:41.051Z,12.65
2024-02-06T01:34:43.217Z,11.27
2024-02-06T01:38:45.111Z,14.70
2024-02-06T01:42:48.461Z,9.65
2024-02-06T01:46:52.722Z,9.68
2024-02-06T01:50:54.742Z,15.43
2024-02-06T01:54:56.668Z,11.15
2024-02-06T01:58:58.846Z,10.88
2024-02-06T02:03:00.740Z,10.02
2024-02-06T02:07:02.999Z,10.95
2024-02-06T02:11:05.168Z,13.07
2024-02-06T02:15:07.593Z,11.15
2024-02-06T02:19:09.416Z,10.77
2024-02-06T02:23:19.664Z,13.38
2024-02-06T02:32:49.380Z,12.23
2024-02-06T02:36:51.210Z,11.85
2024-02-06T02:40:53.009Z,11.82
2024-02-06T02:44:54.828Z,15.73
2024-02-06T02:49:24.811Z,10.80
2024-02-06T02:53:26.636Z,18.42
2024-02-06T02:57:28.445Z,11.80
2024-02-06T03:01:31.834Z,16.23
2024-02-06T03:05:33.712Z,16.63
2024-02-06T03:09:36.482Z,12.27
2024-02-06T03:14:31.472Z,11.15
2024-02-06T03:18:33.850Z,11.65
2024-02-06T03:22:35.661Z,16.95
2024-02-06T03:26:37.474Z,10.73
2024-02-06T03:30:39.780Z,12.07
2024-02-06T03:34:41.537Z,10.43
2024-02-06T03:38:43.464Z,13.90
2024-02-06T03:42:45.170Z,11.88
2024-02-06T03:46:46.943Z,14.88
2024-02-06T03:50:48.821Z,9.82
2024-02-06T03:54:50.575Z,12.70
2024-02-06T03:58:52.391Z,8.75
2024-02-06T04:02:54.262Z,8.65
2024-02-06T04:06:56.246Z,11.65
2024-02-06T04:10:58.260Z,11.93
2024-02-06T04:15:00.531Z,12.70
2024-02-06T04:19:02.400Z,8.90
2024-02-06T04:23:04.908Z,12.18
2024-02-06T04:27:06.706Z,8.65
2024-02-06T04:31:08.603Z,10.00
2024-02-06T04:35:10.615Z,14.48
2024-02-06T04:39:12.408Z,9.32
2024-02-06T04:43:14.261Z,13.30
2024-02-06T04:47:16.139Z,10.65
2024-02-06T04:51:17.890Z,13.85
2024-02-06T04:55:19.755Z,11.18
2024-02-06T04:59:21.616Z,14.88
2024-02-06T05:04:13.280Z,12.43
2024-02-06T05:08:15.161Z,12.18
2024-02-06T05:12:17.088Z,11.02
2024-02-06T05:16:18.936Z,11.82
2024-02-06T05:20:20.737Z,16.13
2024-02-06T05:24:22.499Z,13.13
2024-02-06T05:28:24.351Z,14.90
2024-02-06T05:32:26.223Z,14.15
2024-02-06T05:36:27.983Z,10.90
2024-02-06T05:40:31.099Z,12.65
2024-02-06T05:44:33.006Z,13.50
2024-02-06T05:48:36.677Z,13.88
2024-02-06T05:52:39.317Z,12.75
2024-02-06T05:56:41.198Z,15.52
2024-02-06T06:00:43.027Z,14.15
2024-02-06T06:04:46.150Z,12.90
2024-02-06T06:08:48.416Z,16.95
2024-02-06T06:12:50.329Z,16.67
2024-02-06T06:16:52.220Z,14.70
2024-02-06T06:20:54.377Z,14.65
2024-02-06T06:24:56.316Z,15.23
2024-02-06T06:28:58.196Z,15.18
2024-02-06T06:33:00.321Z,23.65
2024-02-06T06:37:02.232Z,22.67
2024-02-06T06:41:04.219Z,16.42
2024-02-06T06:45:06.622Z,17.10
2024-02-06T06:49:08.584Z,15.43
2024-02-06T06:53:10.904Z,16.77
2024-02-06T06:57:12.778Z,13.63
2024-02-06T07:01:14.753Z,20.63
2024-02-06T07:05:22.462Z,14.55
2024-02-06T07:09:27.313Z,15.32
2024-02-06T07:13:29.654Z,22.42
2024-02-06T07:17:32.255Z,18.08
2024-02-06T07:21:34.610Z,14.10
2024-02-06T07:25:38.079Z,14.63
2024-02-06T07:29:39.884Z,14.18
2024-02-06T07:33:44.783Z,17.73
2024-02-06T07:37:46.781Z,20.23
2024-02-06T07:41:48.659Z,15.35
2024-02-06T07:45:52.136Z,15.30
2024-02-06T07:49:53.987Z,16.50
2024-02-06T07:53:55.999Z,15.98
2024-02-06T07:57:57.855Z,18.27
2024-02-06T08:03:02.081Z,14.35
2024-02-06T08:07:04.078Z,10.88
2024-02-06T08:11:06.040Z,21.83
2024-02-06T08:15:09.996Z,12.27
2024-02-06T08:19:12.382Z,15.98
2024-02-06T08:23:36.343Z,9.77
2024-02-06T08:27:38.222Z,13.85
2024-02-06T08:37:04.286Z,12.43
2024-02-06T08:41:07.593Z,14.00
2024-02-06T08:45:09.550Z,10.32
2024-02-06T08:49:11.340Z,15.40
2024-02-06T08:58:35.842Z,15.48
2024-02-06T09:02:37.749Z,12.27
2024-02-06T09:06:40.460Z,13.65
2024-02-06T09:10:42.653Z,6.55
2024-02-06T09:15:30.237Z,9.25
2024-02-06T09:19:32.313Z,15.38
2024-02-06T09:23:34.089Z,11.48
2024-02-06T09:27:35.915Z,9.73
2024-02-06T09:31:38.866Z,9.77
2024-02-06T09:35:40.844Z,15.20
2024-02-06T09:39:43.803Z,15.15
2024-02-06T09:43:45.693Z,15.50
2024-02-06T09:47:47.556Z,12.93
2024-02-06T09:51:50.567Z,8.50
2024-02-06T09:55:54.133Z,10.90
2024-02-06T09:59:58.797Z,15.02
2024-02-06T10:04:02.331Z,11.27
2024-02-06T10:08:05.452Z,11.95
2024-02-06T10:12:07.945Z,15.82
2024-02-06T10:16:09.937Z,11.52
2024-02-06T10:20:12.697Z,12.82
2024-02-06T10:24:19.057Z,15.73
2024-02-06T10:28:25.226Z,13.40
2024-02-06T10:32:32.092Z,8.27
2024-02-06T10:36:34.924Z,11.47
2024-02-06T10:40:37.063Z,14.43
2024-02-06T10:50:02.969Z,18.55
2024-02-06T10:54:05.127Z,16.48
2024-02-06T10:58:08.440Z,8.38
2024-02-06T11:07:40.006Z,9.18
2024-02-06T11:11:42.434Z,9.88
2024-02-06T11:15:44.916Z,13.65
2024-02-06T11:19:59.414Z,11.38
2024-02-06T11:29:24.148Z,10.52
2024-02-06T11:33:35.203Z,9.95
2024-02-06T11:37:39.810Z,13.15
2024-02-06T11:41:42.701Z,8.60
2024-02-06T11:45:45.038Z,12.13
2024-02-06T11:49:47.195Z,12.90
2024-02-06T11:53:48.957Z,8.98
2024-02-06T11:57:50.700Z,8.50
2024-02-06T12:01:52.686Z,8.80
2024-02-06T12:05:54.792Z,11.73
2024-02-06T12:09:56.647Z,9.75
2024-02-06T12:14:00.193Z,9.70
2024-02-06T12:18:05.022Z,14.30
2024-02-06T12:22:08.800Z,10.00
2024-02-06T12:26:10.593Z,11.27
2024-02-06T12:30:23.790Z,13.90
2024-02-06T12:34:25.862Z,8.18
2024-02-06T12:38:28.017Z,11.98
2024-02-06T12:42:29.769Z,13.18
2024-02-06T12:46:35.078Z,14.43
2024-02-06T12:50:36.967Z,12.18
2024-02-06T12:54:41.074Z,11.98
2024-02-06T12:58:43.295Z,11.30
2024-02-06T13:02:46.010Z,15.18
2024-02-06T13:06:47.809Z,10.30
2024-02-06T13:10:50.515Z,15.68
2024-02-06T13:14:54.196Z,9.85
2024-02-06T13:30:11.787Z,11.77
2024-02-06T13:34:14.340Z,16.05
2024-02-06T13:38:16.505Z,16.65
2024-02-06T13:42:18.340Z,17.77
2024-02-06T13:46:20.259Z,16.17
2024-02-06T13:50:23.048Z,12.35
2024-02-06T13:54:25.371Z,13.63
2024-02-06T13:58:27.227Z,14.18
2024-02-06T14:02:29.097Z,16.80
2024-02-06T14:06:30.952Z,16.15
2024-02-06T14:10:32.891Z,15.00
2024-02-06T14:14:34.746Z,18.75
2024-02-06T14:18:36.469Z,13.93
2024-02-06T14:22:38.409Z,14.13
2024-02-06T14:26:40.440Z,15.18
2024-02-06T14:30:43.764Z,10.18
2024-02-06T14:34:45.534Z,7.78
2024-02-06T14:38:47.557Z,10.77
2024-02-06T14:42:49.358Z,10.77
2024-02-06T14:46:51.215Z,14.57
2024-02-06T14:50:53.216Z,13.85
2024-02-06T14:54:56.915Z,12.40
2024-02-06T14:58:58.813Z,9.27
2024-02-06T15:03:07.259Z,11.60
2024-02-06T15:07:11.826Z,15.20
2024-02-06T15:11:13.753Z,13.73
2024-02-06T15:15:15.653Z,11.48
2024-02-06T15:19:17.904Z,12.85
2024-02-06T15:23:19.873Z,10.82
2024-02-06T15:27:21.812Z,16.45
2024-02-06T15:31:23.617Z,16.38
2024-02-06T15:40:47.103Z,17.63
2024-02-06T15:45:48.626Z,15.20
2024-02-06T15:49:50.533Z,20.40
2024-02-06T15:53:53.038Z,22.42
2024-02-06T15:57:54.956Z,24.40
2024-02-06T16:01:56.999Z,15.65
2024-02-06T16:06:00.216Z,16.20
2024-02-06T16:10:07.990Z,14.80
2024-02-06T16:14:22.299Z,20.90
2024-02-06T16:18:24.310Z,18.45
2024-02-06T16:22:26.486Z,22.38
2024-02-06T16:26:28.229Z,19.95
2024-02-06T16:30:30.115Z,21.67
2024-02-06T16:34:38.862Z,24.05
2024-02-06T16:38:42.342Z,21.48
2024-02-06T16:48:06.637Z,25.38
2024-02-06T16:52:09.365Z,17.92
2024-02-06T16:56:11.859Z,21.80
2024-02-06T17:00:14.513Z,24.92
2024-02-06T17:04:16.402Z,19.52
2024-02-06T17:08:19.224Z,17.20
2024-02-06T17:12:24.123Z,18.27
2024-02-06T17:22:44.882Z,25.17
2024-02-06T17:26:46.728Z,22.00
2024-02-06T17:30:48.570Z,22.33
2024-02-06T17:34:50.529Z,13.98
2024-02-06T17:38:52.376Z,15.70
2024-02-06T17:48:17.286Z,23.15
2024-02-06T17:57:42.331Z,22.45
2024-02-06T18:01:47.755Z,21.55
2024-02-06T18:05:49.539Z,19.52
2024-02-06T18:09:51.410Z,14.27
2024-02-06T18:13:53.585Z,14.00
2024-02-06T18:17:55.842Z,23.98
2024-02-06T18:21:59.017Z,20.17
2024-02-06T18:26:04.323Z,16.90
2024-02-06T18:30:06.756Z,23.38
2024-02-06T18:34:08.650Z,20.50
2024-02-06T18:38:10.479Z,18.67
2024-02-06T18:42:12.237Z,23.33
2024-02-06T18:46:13.951Z,19.17
2024-02-06T18:50:16.070Z,16.75
2024-02-06T18:54:17.922Z,18.75
2024-02-06T18:58:19.734Z,17.50
2024-02-06T19:02:21.553Z,22.42
2024-02-06T19:06:23.620Z,18.48
2024-02-06T19:10:25.485Z,19.50
2024-02-06T19:14:27.346Z,21.73
2024-02-06T19:18:29.252Z,14.25
2024-02-06T19:22:31.225Z,21.45
2024-02-06T19:26:33.851Z,23.58
2024-02-06T19:30:38.725Z,16.90
2024-02-06T19:34:40.675Z,26.75
2024-02-06T19:38:42.555Z,20.08
2024-02-06T19:42:44.522Z,16.15
2024-02-06T19:46:46.348Z,16.42
2024-02-06T19:50:49.493Z,17.45
2024-02-06T19:54:51.460Z,15.82
2024-02-06T19:58:53.440Z,13.65
2024-02-06T20:02:55.291Z,14.55
2024-02-06T20:06:57.091Z,17.10
2024-02-06T20:10:59.169Z,16.27
2024-02-06T20:15:01.127Z,19.33
2024-02-06T20:19:03.036Z,16.25
2024-02-06T20:23:05.761Z,13.98
2024-02-06T20:27:07.513Z,19.70
2024-02-06T20:31:09.358Z,14.52
2024-02-06T20:35:11.633Z,16.60
2024-02-06T20:39:14.126Z,14.80
2024-02-06T20:43:15.961Z,11.88
2024-02-06T20:47:17.818Z,13.50
2024-02-06T20:51:21.079Z,12.95
2024-02-06T20:55:23.090Z,15.85
2024-02-06T20:59:25.155Z,12.95
2024-02-06T21:03:26.942Z,11.98
2024-02-06T21:07:29.042Z,15.43
2024-02-06T21:11:31.962Z,16.60
2024-02-06T21:15:33.816Z,13.38
2024-02-06T21:19:35.745Z,15.18
2024-02-06T21:23:37.551Z,13.77
2024-02-06T21:27:39.320Z,8.73
2024-02-06T21:31:41.451Z,10.43
2024-02-06T21:36:58.122Z,11.35
2024-02-06T21:41:01.340Z,11.68
2024-02-06T21:45:04.663Z,10.70
2024-02-06T21:49:06.523Z,9.50
2024-02-06T21:53:08.319Z,10.63
2024-02-06T21:57:10.196Z,12.27
2024-02-06T22:01:12.117Z,12.23
2024-02-06T22:05:14.561Z,8.48
2024-02-06T22:09:16.542Z,14.15
2024-02-06T22:13:18.346Z,13.20
2024-02-06T22:17:20.583Z,11.27
2024-02-06T22:21:22.459Z,9.68
2024-02-06T22:25:24.271Z,6.65
2024-02-06T22:29:26.532Z,7.70
2024-02-06T22:33:28.476Z,8.45
2024-02-06T22:37:30.385Z,8.18
2024-02-06T22:41:32.227Z,6.32
2024-02-06T22:45:34.023Z,7.60
2024-02-06T22:49:35.945Z,2.58
2024-02-06T22:53:37.759Z,1.05
2024-02-06T22:57:40.266Z,2.63
2024-02-06T23:01:47.476Z,1.80
2024-02-06T23:05:49.344Z,9.02
2024-02-06T23:09:51.936Z,1.08
2024-02-06T23:13:54.200Z,3.03
2024-02-06T23:17:56.642Z,2.30
2024-02-06T23:21:58.477Z,2.85
2024-02-06T23:31:24.390Z,2.60
2024-02-06T23:35:26.298Z,3.83
2024-02-06T23:39:28.136Z,5.40
2024-02-06T23:43:30.597Z,2.33
2024-02-06T23:47:32.809Z,3.50
2024-02-06T23:51:35.486Z,3.88
2024-02-06T23:55:37.204Z,2.92
2024-02-06T23:59:39.009Z,3.40
